sensor_id;sensor_type;location;lat;lon;timestamp;pressure;altitude;pressure_sealevel;temperature;humidity
41078;BME280;26823;42.662;23.352;2023-05-31T00:02:00;94853.09;;;15.93;89.10
41078;BME280;26823;42.662;23.352;2023-05-31T00:04:25;94856.34;;;15.95;89.34
41078;BME280;26823;42.662;23.352;2023-05-31T00:06:51;94851.41;;;16.06;89.02
41078;BME280;26823;42.662;23.352;2023-05-31T00:09:16;94849.84;;;16.13;88.64
41078;BME280;26823;42.662;23.352;2023-05-31T00:11:41;94860.06;;;16.30;88.65
41078;BME280;26823;42.662;23.352;2023-05-31T00:14:07;94862.88;;;16.17;88.75
41078;BME280;26823;42.662;23.352;2023-05-31T00:16:32;94858.84;;;16.14;88.39
41078;BME280;26823;42.662;23.352;2023-05-31T00:18:58;94864.31;;;16.14;88.55
41078;BME280;26823;42.662;23.352;2023-05-31T00:21:24;94866.00;;;16.01;89.36
41078;BME280;26823;42.662;23.352;2023-05-31T00:23:57;94867.78;;;16.06;89.55
41078;BME280;26823;42.662;23.352;2023-05-31T00:26:22;94855.88;;;16.02;89.85
41078;BME280;26823;42.662;23.352;2023-05-31T00:28:48;94856.88;;;16.06;89.77
41078;BME280;26823;42.662;23.352;2023-05-31T00:31:13;94846.91;;;16.01;90.55
41078;BME280;26823;42.662;23.352;2023-05-31T00:33:39;94850.94;;;16.04;90.21
41078;BME280;26823;42.662;23.352;2023-05-31T00:36:04;94861.88;;;16.12;89.99
41078;BME280;26823;42.662;23.352;2023-05-31T00:38:30;94860.44;;;15.84;90.98
41078;BME280;26823;42.662;23.352;2023-05-31T00:40:55;94861.72;;;15.86;90.82
41078;BME280;26823;42.662;23.352;2023-05-31T00:43:21;94861.22;;;15.84;91.09
41078;BME280;26823;42.662;23.352;2023-05-31T00:45:46;94860.84;;;16.00;90.97
41078;BME280;26823;42.662;23.352;2023-05-31T00:48:11;94854.25;;;16.01;91.19
41078;BME280;26823;42.662;23.352;2023-05-31T00:50:37;94856.19;;;16.00;91.03
41078;BME280;26823;42.662;23.352;2023-05-31T00:53:03;94862.94;;;16.03;90.92
41078;BME280;26823;42.662;23.352;2023-05-31T00:55:29;94854.63;;;16.08;90.89
41078;BME280;26823;42.662;23.352;2023-05-31T00:57:57;94868.81;;;16.19;90.43
41078;BME280;26823;42.662;23.352;2023-05-31T01:00:22;94858.16;;;16.08;90.41
41078;BME280;26823;42.662;23.352;2023-05-31T01:02:47;94870.56;;;16.14;90.56
41078;BME280;26823;42.662;23.352;2023-05-31T01:05:16;94876.78;;;16.06;91.25
41078;BME280;26823;42.662;23.352;2023-05-31T01:07:41;94875.78;;;16.02;91.01
41078;BME280;26823;42.662;23.352;2023-05-31T01:10:07;94875.59;;;15.98;91.63
41078;BME280;26823;42.662;23.352;2023-05-31T01:12:59;94863.56;;;16.00;91.33
41078;BME280;26823;42.662;23.352;2023-05-31T01:15:31;94869.03;;;16.00;91.04
41078;BME280;26823;42.662;23.352;2023-05-31T01:20:45;94864.56;;;16.04;91.20
41078;BME280;26823;42.662;23.352;2023-05-31T01:28:40;94870.75;;;15.95;88.27
41078;BME280;26823;42.662;23.352;2023-05-31T01:31:08;94871.94;;;16.03;88.84
41078;BME280;26823;42.662;23.352;2023-05-31T01:33:35;94862.44;;;16.01;89.41
41078;BME280;26823;42.662;23.352;2023-05-31T01:36:01;94855.56;;;16.03;88.95
41078;BME280;26823;42.662;23.352;2023-05-31T01:38:26;94869.84;;;16.00;89.31
41078;BME280;26823;42.662;23.352;2023-05-31T01:40:52;94881.69;;;15.95;89.95
41078;BME280;26823;42.662;23.352;2023-05-31T01:43:20;94867.97;;;15.87;90.82
41078;BME280;26823;42.662;23.352;2023-05-31T01:45:45;94866.38;;;15.86;90.28
41078;BME280;26823;42.662;23.352;2023-05-31T01:48:12;94863.34;;;15.87;90.84
41078;BME280;26823;42.662;23.352;2023-05-31T01:50:39;94867.66;;;15.88;90.68
41078;BME280;26823;42.662;23.352;2023-05-31T01:53:05;94868.84;;;15.96;90.09
41078;BME280;26823;42.662;23.352;2023-05-31T01:55:31;94869.91;;;15.86;90.55
41078;BME280;26823;42.662;23.352;2023-05-31T01:57:57;94877.28;;;15.86;90.38
41078;BME280;26823;42.662;23.352;2023-05-31T02:00:23;94862.78;;;15.99;90.15
41078;BME280;26823;42.662;23.352;2023-05-31T02:02:50;94857.81;;;16.01;90.26
41078;BME280;26823;42.662;23.352;2023-05-31T02:05:16;94883.28;;;15.96;91.09
41078;BME280;26823;42.662;23.352;2023-05-31T02:07:43;94871.44;;;15.78;91.41
41078;BME280;26823;42.662;23.352;2023-05-31T02:10:19;94869.91;;;15.86;90.86
41078;BME280;26823;42.662;23.352;2023-05-31T02:12:45;94871.06;;;15.71;91.43
41078;BME280;26823;42.662;23.352;2023-05-31T02:15:10;94882.72;;;15.86;91.56
41078;BME280;26823;42.662;23.352;2023-05-31T02:17:38;94890.22;;;16.03;90.98
41078;BME280;26823;42.662;23.352;2023-05-31T02:20:12;94893.38;;;15.96;91.45
41078;BME280;26823;42.662;23.352;2023-05-31T02:22:42;94882.59;;;15.91;91.63
41078;BME280;26823;42.662;23.352;2023-05-31T02:25:12;94884.47;;;15.81;92.44
41078;BME280;26823;42.662;23.352;2023-05-31T02:27:38;94880.81;;;15.86;92.03
41078;BME280;26823;42.662;23.352;2023-05-31T02:30:05;94884.16;;;15.83;92.10
41078;BME280;26823;42.662;23.352;2023-05-31T02:32:31;94880.75;;;16.00;91.28
41078;BME280;26823;42.662;23.352;2023-05-31T02:35:05;94877.09;;;15.82;92.53
41078;BME280;26823;42.662;23.352;2023-05-31T02:37:32;94886.69;;;16.02;91.73
41078;BME280;26823;42.662;23.352;2023-05-31T02:39:58;94883.41;;;15.91;91.81
41078;BME280;26823;42.662;23.352;2023-05-31T02:42:23;94873.97;;;15.52;94.66
41078;BME280;26823;42.662;23.352;2023-05-31T02:44:48;94882.94;;;15.53;94.67
41078;BME280;26823;42.662;23.352;2023-05-31T02:47:14;94877.56;;;15.61;94.57
41078;BME280;26823;42.662;23.352;2023-05-31T02:49:39;94877.31;;;15.72;92.14
41078;BME280;26823;42.662;23.352;2023-05-31T02:52:05;94876.00;;;15.69;93.32
41078;BME280;26823;42.662;23.352;2023-05-31T02:54:30;94877.63;;;15.70;94.42
41078;BME280;26823;42.662;23.352;2023-05-31T02:56:56;94880.41;;;15.79;93.64
41078;BME280;26823;42.662;23.352;2023-05-31T02:59:21;94869.44;;;15.70;94.64
41078;BME280;26823;42.662;23.352;2023-05-31T03:01:53;94877.69;;;15.79;94.16
41078;BME280;26823;42.662;23.352;2023-05-31T03:04:18;94890.38;;;15.61;94.77
41078;BME280;26823;42.662;23.352;2023-05-31T03:06:43;94881.75;;;15.45;96.57
41078;BME280;26823;42.662;23.352;2023-05-31T03:09:09;94886.63;;;15.34;96.31
41078;BME280;26823;42.662;23.352;2023-05-31T03:11:39;94874.44;;;15.31;96.09
41078;BME280;26823;42.662;23.352;2023-05-31T03:14:04;94880.06;;;15.35;96.22
41078;BME280;26823;42.662;23.352;2023-05-31T03:16:30;94876.03;;;15.32;96.94
41078;BME280;26823;42.662;23.352;2023-05-31T03:18:55;94876.34;;;15.31;96.98
41078;BME280;26823;42.662;23.352;2023-05-31T03:21:21;94888.16;;;15.26;97.05
41078;BME280;26823;42.662;23.352;2023-05-31T03:23:46;94889.41;;;15.20;97.86
41078;BME280;26823;42.662;23.352;2023-05-31T03:26:11;94887.28;;;15.17;98.05
41078;BME280;26823;42.662;23.352;2023-05-31T03:28:37;94886.06;;;15.09;97.66
41078;BME280;26823;42.662;23.352;2023-05-31T03:31:02;94890.38;;;15.24;97.00
41078;BME280;26823;42.662;23.352;2023-05-31T03:33:27;94881.66;;;15.36;95.89
41078;BME280;26823;42.662;23.352;2023-05-31T03:35:53;94900.03;;;15.44;96.07
41078;BME280;26823;42.662;23.352;2023-05-31T03:38:21;94887.13;;;15.36;94.91
41078;BME280;26823;42.662;23.352;2023-05-31T03:40:47;94893.41;;;15.37;95.07
41078;BME280;26823;42.662;23.352;2023-05-31T03:43:12;94884.75;;;15.21;96.04
41078;BME280;26823;42.662;23.352;2023-05-31T03:45:37;94892.22;;;15.29;96.13
41078;BME280;26823;42.662;23.352;2023-05-31T03:48:03;94908.81;;;15.41;96.03
41078;BME280;26823;42.662;23.352;2023-05-31T03:50:28;94904.22;;;15.28;96.12
41078;BME280;26823;42.662;23.352;2023-05-31T03:52:53;94892.81;;;15.26;96.10
41078;BME280;26823;42.662;23.352;2023-05-31T03:55:19;94902.69;;;15.36;96.46
41078;BME280;26823;42.662;23.352;2023-05-31T03:57:45;94914.16;;;15.32;96.45
41078;BME280;26823;42.662;23.352;2023-05-31T04:00:11;94905.69;;;15.48;96.26
41078;BME280;26823;42.662;23.352;2023-05-31T04:02:37;94901.09;;;15.57;95.61
41078;BME280;26823;42.662;23.352;2023-05-31T04:05:03;94907.50;;;15.75;94.96
41078;BME280;26823;42.662;23.352;2023-05-31T04:07:29;94916.03;;;15.60;95.66
41078;BME280;26823;42.662;23.352;2023-05-31T04:09:55;94900.34;;;15.65;94.47
41078;BME280;26823;42.662;23.352;2023-05-31T04:12:20;94917.91;;;15.73;94.01
41078;BME280;26823;42.662;23.352;2023-05-31T04:14:46;94909.81;;;15.68;93.48
41078;BME280;26823;42.662;23.352;2023-05-31T04:17:11;94909.66;;;15.64;93.89
41078;BME280;26823;42.662;23.352;2023-05-31T04:19:37;94919.91;;;15.45;94.78
41078;BME280;26823;42.662;23.352;2023-05-31T04:22:02;94926.84;;;15.51;94.76
41078;BME280;26823;42.662;23.352;2023-05-31T04:24:30;94917.41;;;15.35;95.39
41078;BME280;26823;42.662;23.352;2023-05-31T04:26:55;94922.06;;;15.34;95.93
41078;BME280;26823;42.662;23.352;2023-05-31T04:29:29;94919.81;;;15.36;95.90
41078;BME280;26823;42.662;23.352;2023-05-31T04:31:54;94926.69;;;15.33;96.03
41078;BME280;26823;42.662;23.352;2023-05-31T04:34:20;94925.38;;;15.31;96.28
41078;BME280;26823;42.662;23.352;2023-05-31T04:36:45;94924.25;;;15.46;95.18
41078;BME280;26823;42.662;23.352;2023-05-31T04:39:16;94932.63;;;15.49;95.28
41078;BME280;26823;42.662;23.352;2023-05-31T04:41:42;94939.69;;;15.51;95.14
41078;BME280;26823;42.662;23.352;2023-05-31T04:44:08;94922.19;;;15.29;95.71
41078;BME280;26823;42.662;23.352;2023-05-31T04:46:33;94933.06;;;15.43;95.14
41078;BME280;26823;42.662;23.352;2023-05-31T04:48:59;94933.31;;;15.55;94.64
41078;BME280;26823;42.662;23.352;2023-05-31T04:51:26;94933.00;;;15.79;93.67
41078;BME280;26823;42.662;23.352;2023-05-31T04:53:52;94932.72;;;15.95;92.38
41078;BME280;26823;42.662;23.352;2023-05-31T04:56:17;94934.53;;;16.08;92.05
41078;BME280;26823;42.662;23.352;2023-05-31T04:58:42;94940.31;;;15.70;92.98
41078;BME280;26823;42.662;23.352;2023-05-31T05:01:08;94944.91;;;15.61;93.74
41078;BME280;26823;42.662;23.352;2023-05-31T05:03:33;94949.00;;;15.86;93.42
41078;BME280;26823;42.662;23.352;2023-05-31T05:06:02;94959.19;;;15.80;92.83
41078;BME280;26823;42.662;23.352;2023-05-31T05:08:37;94955.69;;;15.66;93.94
41078;BME280;26823;42.662;23.352;2023-05-31T05:11:02;94954.78;;;15.71;93.33
41078;BME280;26823;42.662;23.352;2023-05-31T05:13:28;94961.53;;;15.87;93.32
41078;BME280;26823;42.662;23.352;2023-05-31T05:15:54;94967.28;;;16.08;92.48
41078;BME280;26823;42.662;23.352;2023-05-31T05:18:20;94961.28;;;15.97;91.95
41078;BME280;26823;42.662;23.352;2023-05-31T05:20:45;94966.91;;;15.64;93.16
41078;BME280;26823;42.662;23.352;2023-05-31T05:23:10;94960.00;;;15.81;92.97
41078;BME280;26823;42.662;23.352;2023-05-31T05:25:36;94971.50;;;15.92;92.11
41078;BME280;26823;42.662;23.352;2023-05-31T05:28:01;94968.03;;;15.63;93.29
41078;BME280;26823;42.662;23.352;2023-05-31T05:30:27;94966.28;;;15.81;93.50
41078;BME280;26823;42.662;23.352;2023-05-31T05:32:52;94971.22;;;15.65;93.58
41078;BME280;26823;42.662;23.352;2023-05-31T05:35:18;94970.72;;;15.77;93.13
41078;BME280;26823;42.662;23.352;2023-05-31T05:37:43;94971.94;;;15.85;92.50
41078;BME280;26823;42.662;23.352;2023-05-31T05:40:09;94968.31;;;15.98;92.15
41078;BME280;26823;42.662;23.352;2023-05-31T05:42:35;94985.00;;;15.97;92.16
41078;BME280;26823;42.662;23.352;2023-05-31T05:45:05;94961.81;;;15.86;92.27
41078;BME280;26823;42.662;23.352;2023-05-31T05:47:34;94979.91;;;15.81;92.89
41078;BME280;26823;42.662;23.352;2023-05-31T05:50:00;94976.59;;;16.07;92.68
41078;BME280;26823;42.662;23.352;2023-05-31T05:52:26;94972.38;;;16.24;91.53
41078;BME280;26823;42.662;23.352;2023-05-31T05:54:51;94972.88;;;16.26;90.97
41078;BME280;26823;42.662;23.352;2023-05-31T05:57:17;94979.88;;;16.41;90.73
41078;BME280;26823;42.662;23.352;2023-05-31T05:59:42;94972.53;;;16.50;90.44
41078;BME280;26823;42.662;23.352;2023-05-31T06:02:09;94971.84;;;16.67;89.86
41078;BME280;26823;42.662;23.352;2023-05-31T06:04:35;94974.09;;;16.42;89.75
41078;BME280;26823;42.662;23.352;2023-05-31T06:07:00;94974.09;;;16.42;89.91
41078;BME280;26823;42.662;23.352;2023-05-31T06:09:25;94975.03;;;16.69;88.95
41078;BME280;26823;42.662;23.352;2023-05-31T06:11:51;94969.19;;;16.85;87.71
41078;BME280;26823;42.662;23.352;2023-05-31T06:14:17;94975.59;;;16.80;87.80
41078;BME280;26823;42.662;23.352;2023-05-31T06:16:43;94986.41;;;16.62;88.79
41078;BME280;26823;42.662;23.352;2023-05-31T06:19:08;94978.88;;;16.59;89.08
41078;BME280;26823;42.662;23.352;2023-05-31T06:21:33;94982.66;;;16.81;88.49
41078;BME280;26823;42.662;23.352;2023-05-31T06:24:00;94984.34;;;16.91;88.08
41078;BME280;26823;42.662;23.352;2023-05-31T06:26:26;94977.63;;;16.74;88.34
41078;BME280;26823;42.662;23.352;2023-05-31T06:28:52;94984.34;;;16.91;88.72
41078;BME280;26823;42.662;23.352;2023-05-31T06:31:17;94982.47;;;17.00;87.50
41078;BME280;26823;42.662;23.352;2023-05-31T06:33:43;94993.16;;;17.28;88.61
41078;BME280;26823;42.662;23.352;2023-05-31T06:36:08;94987.28;;;17.52;85.74
41078;BME280;26823;42.662;23.352;2023-05-31T06:38:33;94982.72;;;17.39;85.65
41078;BME280;26823;42.662;23.352;2023-05-31T06:40:59;94996.00;;;17.81;86.63
41078;BME280;26823;42.662;23.352;2023-05-31T06:43:24;94991.63;;;17.53;85.18
41078;BME280;26823;42.662;23.352;2023-05-31T06:45:50;94987.75;;;17.46;84.43
41078;BME280;26823;42.662;23.352;2023-05-31T06:48:15;94969.84;;;17.22;84.85
41078;BME280;26823;42.662;23.352;2023-05-31T06:50:41;94989.38;;;17.55;83.94
41078;BME280;26823;42.662;23.352;2023-05-31T06:53:07;94987.47;;;17.65;83.23
41078;BME280;26823;42.662;23.352;2023-05-31T06:55:34;94988.44;;;17.77;82.56
41078;BME280;26823;42.662;23.352;2023-05-31T06:58:00;94990.34;;;17.59;83.48
41078;BME280;26823;42.662;23.352;2023-05-31T07:00:26;94986.69;;;17.90;84.11
41078;BME280;26823;42.662;23.352;2023-05-31T07:02:51;94992.03;;;17.96;82.60
41078;BME280;26823;42.662;23.352;2023-05-31T07:05:17;94986.50;;;17.87;82.16
41078;BME280;26823;42.662;23.352;2023-05-31T07:07:42;94983.94;;;17.82;81.82
41078;BME280;26823;42.662;23.352;2023-05-31T07:10:08;94992.19;;;17.99;82.29
41078;BME280;26823;42.662;23.352;2023-05-31T07:12:33;94974.47;;;18.23;81.02
41078;BME280;26823;42.662;23.352;2023-05-31T07:14:59;94975.44;;;18.27;81.17
41078;BME280;26823;42.662;23.352;2023-05-31T07:17:24;94982.19;;;18.38;81.31
41078;BME280;26823;42.662;23.352;2023-05-31T07:19:51;94989.13;;;18.36;80.06
41078;BME280;26823;42.662;23.352;2023-05-31T07:22:17;95000.66;;;18.68;79.30
41078;BME280;26823;42.662;23.352;2023-05-31T07:24:43;94999.72;;;18.55;80.41
41078;BME280;26823;42.662;23.352;2023-05-31T07:27:09;94993.22;;;18.68;79.60
41078;BME280;26823;42.662;23.352;2023-05-31T07:29:35;94989.56;;;18.47;78.50
41078;BME280;26823;42.662;23.352;2023-05-31T07:32:01;94974.09;;;18.60;77.57
41078;BME280;26823;42.662;23.352;2023-05-31T07:34:27;94995.53;;;18.57;78.64
41078;BME280;26823;42.662;23.352;2023-05-31T07:36:52;94994.22;;;18.64;77.07
41078;BME280;26823;42.662;23.352;2023-05-31T07:39:24;94978.44;;;18.52;75.30
41078;BME280;26823;42.662;23.352;2023-05-31T07:41:49;94992.72;;;18.84;75.66
41078;BME280;26823;42.662;23.352;2023-05-31T07:44:15;94990.00;;;18.93;76.60
41078;BME280;26823;42.662;23.352;2023-05-31T07:46:44;94983.75;;;19.22;75.61
41078;BME280;26823;42.662;23.352;2023-05-31T07:49:10;94995.97;;;18.68;76.07
41078;BME280;26823;42.662;23.352;2023-05-31T07:51:35;94986.09;;;18.94;75.19
41078;BME280;26823;42.662;23.352;2023-05-31T07:54:01;94989.47;;;18.99;75.37
41078;BME280;26823;42.662;23.352;2023-05-31T07:56:27;94989.03;;;19.27;74.89
41078;BME280;26823;42.662;23.352;2023-05-31T07:58:52;94976.84;;;19.16;73.78
41078;BME280;26823;42.662;23.352;2023-05-31T08:01:18;94974.91;;;19.46;73.22
41078;BME280;26823;42.662;23.352;2023-05-31T08:03:43;94984.94;;;19.42;74.12
41078;BME280;26823;42.662;23.352;2023-05-31T08:06:09;94982.19;;;19.42;73.26
41078;BME280;26823;42.662;23.352;2023-05-31T08:08:34;94976.75;;;19.33;73.10
41078;BME280;26823;42.662;23.352;2023-05-31T08:11:00;94969.91;;;19.69;73.92
41078;BME280;26823;42.662;23.352;2023-05-31T08:13:27;94972.66;;;20.20;74.20
41078;BME280;26823;42.662;23.352;2023-05-31T08:15:54;94972.16;;;20.40;72.03
41078;BME280;26823;42.662;23.352;2023-05-31T08:18:20;94964.03;;;20.77;72.68
41078;BME280;26823;42.662;23.352;2023-05-31T08:20:45;94968.44;;;20.90;71.67
41078;BME280;26823;42.662;23.352;2023-05-31T08:23:20;94964.72;;;20.74;69.43
41078;BME280;26823;42.662;23.352;2023-05-31T08:25:47;94965.25;;;20.67;69.54
41078;BME280;26823;42.662;23.352;2023-05-31T08:28:12;94942.72;;;20.40;72.00
41078;BME280;26823;42.662;23.352;2023-05-31T08:30:38;94959.00;;;20.91;71.16
41078;BME280;26823;42.662;23.352;2023-05-31T08:33:04;94961.81;;;21.16;69.20
41078;BME280;26823;42.662;23.352;2023-05-31T08:35:29;94960.63;;;20.92;70.49
41078;BME280;26823;42.662;23.352;2023-05-31T08:37:55;94974.84;;;20.61;67.79
41078;BME280;26823;42.662;23.352;2023-05-31T08:40:21;94955.38;;;19.99;69.06
41078;BME280;26823;42.662;23.352;2023-05-31T08:43:00;94940.59;;;20.92;68.44
41078;BME280;26823;42.662;23.352;2023-05-31T08:45:29;94945.06;;;21.09;66.83
41078;BME280;26823;42.662;23.352;2023-05-31T08:48:17;94963.41;;;21.17;66.30
41078;BME280;26823;42.662;23.352;2023-05-31T08:50:45;94949.63;;;20.92;64.64
41078;BME280;26823;42.662;23.352;2023-05-31T08:53:10;94948.28;;;21.23;65.85
41078;BME280;26823;42.662;23.352;2023-05-31T08:55:37;94944.06;;;20.34;64.18
41078;BME280;26823;42.662;23.352;2023-05-31T08:58:04;94936.94;;;20.54;64.16
41078;BME280;26823;42.662;23.352;2023-05-31T09:00:31;94928.22;;;20.52;66.26
41078;BME280;26823;42.662;23.352;2023-05-31T09:02:58;94923.28;;;20.79;65.74
41078;BME280;26823;42.662;23.352;2023-05-31T09:05:24;94940.94;;;21.27;65.54
41078;BME280;26823;42.662;23.352;2023-05-31T09:07:50;94936.22;;;20.78;65.01
41078;BME280;26823;42.662;23.352;2023-05-31T09:10:16;94932.59;;;20.65;66.74
41078;BME280;26823;42.662;23.352;2023-05-31T09:13:00;94921.09;;;20.72;66.37
41078;BME280;26823;42.662;23.352;2023-05-31T09:15:26;94905.34;;;20.60;66.70
41078;BME280;26823;42.662;23.352;2023-05-31T09:17:52;94925.69;;;20.80;67.11
41078;BME280;26823;42.662;23.352;2023-05-31T09:20:18;94921.31;;;20.79;68.36
41078;BME280;26823;42.662;23.352;2023-05-31T09:22:50;94927.34;;;20.60;67.33
41078;BME280;26823;42.662;23.352;2023-05-31T09:25:15;94931.38;;;20.29;68.08
41078;BME280;26823;42.662;23.352;2023-05-31T09:27:41;94927.81;;;20.29;68.56
41078;BME280;26823;42.662;23.352;2023-05-31T09:30:12;94922.59;;;20.36;68.48
41078;BME280;26823;42.662;23.352;2023-05-31T09:32:38;94923.91;;;20.63;67.93
41078;BME280;26823;42.662;23.352;2023-05-31T09:35:14;94923.19;;;20.54;66.98
41078;BME280;26823;42.662;23.352;2023-05-31T09:37:44;94922.00;;;19.67;70.12
41078;BME280;26823;42.662;23.352;2023-05-31T09:40:12;94918.69;;;19.82;71.02
41078;BME280;26823;42.662;23.352;2023-05-31T09:42:38;94921.59;;;19.77;71.97
41078;BME280;26823;42.662;23.352;2023-05-31T09:45:04;94921.22;;;19.66;73.17
41078;BME280;26823;42.662;23.352;2023-05-31T09:47:30;94913.06;;;19.28;74.96
41078;BME280;26823;42.662;23.352;2023-05-31T09:49:56;94924.28;;;19.14;77.18
41078;BME280;26823;42.662;23.352;2023-05-31T09:52:28;94924.22;;;18.93;78.65
41078;BME280;26823;42.662;23.352;2023-05-31T09:54:56;94924.91;;;19.19;79.10
41078;BME280;26823;42.662;23.352;2023-05-31T09:57:37;94916.97;;;19.48;77.61
41078;BME280;26823;42.662;23.352;2023-05-31T10:00:13;94908.63;;;19.65;76.57
41078;BME280;26823;42.662;23.352;2023-05-31T10:02:44;94907.63;;;19.49;76.22
41078;BME280;26823;42.662;23.352;2023-05-31T10:05:10;94900.41;;;19.65;75.30
41078;BME280;26823;42.662;23.352;2023-05-31T10:07:40;94894.09;;;19.44;73.96
41078;BME280;26823;42.662;23.352;2023-05-31T10:10:07;94894.38;;;19.51;75.45
41078;BME280;26823;42.662;23.352;2023-05-31T10:12:39;94895.16;;;19.51;76.27
41078;BME280;26823;42.662;23.352;2023-05-31T10:15:09;94891.84;;;19.88;74.65
41078;BME280;26823;42.662;23.352;2023-05-31T10:17:40;94900.16;;;20.13;74.88
41078;BME280;26823;42.662;23.352;2023-05-31T10:20:08;94893.72;;;20.30;73.90
41078;BME280;26823;42.662;23.352;2023-05-31T10:22:39;94898.03;;;20.18;72.44
41078;BME280;26823;42.662;23.352;2023-05-31T10:25:32;94898.47;;;20.08;74.37
41078;BME280;26823;42.662;23.352;2023-05-31T10:27:57;94899.09;;;19.93;74.70
41078;BME280;26823;42.662;23.352;2023-05-31T10:30:28;94890.25;;;19.87;71.65
41078;BME280;26823;42.662;23.352;2023-05-31T10:33:07;94892.28;;;19.48;73.49
41078;BME280;26823;42.662;23.352;2023-05-31T10:35:33;94893.81;;;19.15;73.84
41078;BME280;26823;42.662;23.352;2023-05-31T10:38:00;94890.59;;;19.13;78.30
41078;BME280;26823;42.662;23.352;2023-05-31T10:40:52;94886.75;;;19.05;80.55
41078;BME280;26823;42.662;23.352;2023-05-31T10:43:32;94882.84;;;18.77;79.89
41078;BME280;26823;42.662;23.352;2023-05-31T10:46:09;94879.78;;;18.31;81.51
41078;BME280;26823;42.662;23.352;2023-05-31T10:48:51;94891.19;;;18.33;82.18
41078;BME280;26823;42.662;23.352;2023-05-31T10:51:17;94881.84;;;18.34;83.26
41078;BME280;26823;42.662;23.352;2023-05-31T10:53:44;94883.09;;;18.54;84.73
41078;BME280;26823;42.662;23.352;2023-05-31T10:56:27;94871.50;;;18.57;88.70
41078;BME280;26823;42.662;23.352;2023-05-31T10:59:01;94860.00;;;18.64;88.94
41078;BME280;26823;42.662;23.352;2023-05-31T11:01:29;94890.94;;;18.64;84.42
41078;BME280;26823;42.662;23.352;2023-05-31T11:03:55;94876.69;;;18.80;85.63
41078;BME280;26823;42.662;23.352;2023-05-31T11:06:27;94872.03;;;18.80;89.49
41078;BME280;26823;42.662;23.352;2023-05-31T11:09:00;94878.63;;;18.79;90.13
41078;BME280;26823;42.662;23.352;2023-05-31T11:13:59;94863.81;;;19.10;84.04
41078;BME280;26823;42.662;23.352;2023-05-31T11:16:26;94874.53;;;19.24;84.87
41078;BME280;26823;42.662;23.352;2023-05-31T11:19:20;94869.47;;;19.35;85.53
41078;BME280;26823;42.662;23.352;2023-05-31T11:21:53;94863.94;;;19.44;83.92
41078;BME280;26823;42.662;23.352;2023-05-31T11:26:57;94861.56;;;20.18;76.70
41078;BME280;26823;42.662;23.352;2023-05-31T11:29:23;94862.06;;;20.45;76.62
41078;BME280;26823;42.662;23.352;2023-05-31T11:34:24;94856.28;;;20.71;73.34
41078;BME280;26823;42.662;23.352;2023-05-31T11:36:50;94850.00;;;20.83;74.39
41078;BME280;26823;42.662;23.352;2023-05-31T11:39:17;94846.31;;;21.04;69.68
41078;BME280;26823;42.662;23.352;2023-05-31T11:41:45;94839.78;;;20.83;68.72
41078;BME280;26823;42.662;23.352;2023-05-31T11:44:11;94841.03;;;20.61;67.23
41078;BME280;26823;42.662;23.352;2023-05-31T11:46:40;94833.31;;;20.30;68.79
41078;BME280;26823;42.662;23.352;2023-05-31T11:49:10;94843.03;;;20.27;70.13
41078;BME280;26823;42.662;23.352;2023-05-31T11:51:42;94839.59;;;20.30;70.46
41078;BME280;26823;42.662;23.352;2023-05-31T11:54:32;94838.94;;;20.00;68.89
41078;BME280;26823;42.662;23.352;2023-05-31T11:57:18;94841.78;;;19.91;71.86
41078;BME280;26823;42.662;23.352;2023-05-31T11:59:45;94844.59;;;19.82;73.27
41078;BME280;26823;42.662;23.352;2023-05-31T12:02:14;94843.00;;;19.60;77.04
41078;BME280;26823;42.662;23.352;2023-05-31T12:04:48;94836.75;;;19.09;78.81
41078;BME280;26823;42.662;23.352;2023-05-31T12:07:29;94845.41;;;18.81;82.84
41078;BME280;26823;42.662;23.352;2023-05-31T12:09:58;94848.34;;;18.75;83.22
41078;BME280;26823;42.662;23.352;2023-05-31T12:12:23;94818.09;;;18.63;85.52
41078;BME280;26823;42.662;23.352;2023-05-31T12:14:52;94843.03;;;18.79;89.01
41078;BME280;26823;42.662;23.352;2023-05-31T12:17:18;94849.13;;;18.85;88.90
41078;BME280;26823;42.662;23.352;2023-05-31T12:19:47;94841.13;;;18.71;91.83
41078;BME280;26823;42.662;23.352;2023-05-31T12:22:12;94839.78;;;18.47;94.86
41078;BME280;26823;42.662;23.352;2023-05-31T12:24:47;94843.66;;;18.46;95.67
41078;BME280;26823;42.662;23.352;2023-05-31T12:27:15;94842.19;;;18.49;96.42
41078;BME280;26823;42.662;23.352;2023-05-31T12:29:40;94851.50;;;17.91;92.14
41078;BME280;26823;42.662;23.352;2023-05-31T12:32:06;94842.00;;;17.89;88.86
41078;BME280;26823;42.662;23.352;2023-05-31T12:34:34;94816.25;;;17.99;93.57
41078;BME280;26823;42.662;23.352;2023-05-31T12:37:05;94814.97;;;17.96;95.37
41078;BME280;26823;42.662;23.352;2023-05-31T12:39:30;94814.66;;;18.06;97.60
41078;BME280;26823;42.662;23.352;2023-05-31T12:41:57;94811.25;;;18.01;99.90
41078;BME280;26823;42.662;23.352;2023-05-31T12:44:23;94807.38;;;18.11;100.00
41078;BME280;26823;42.662;23.352;2023-05-31T12:46:50;94816.41;;;18.02;100.00
41078;BME280;26823;42.662;23.352;2023-05-31T12:49:26;94814.16;;;18.04;100.00
41078;BME280;26823;42.662;23.352;2023-05-31T12:52:10;94815.94;;;18.00;100.00
41078;BME280;26823;42.662;23.352;2023-05-31T12:54:39;94809.03;;;17.94;100.00
41078;BME280;26823;42.662;23.352;2023-05-31T12:57:08;94806.44;;;17.89;100.00
41078;BME280;26823;42.662;23.352;2023-05-31T12:59:34;94802.09;;;17.88;100.00
41078;BME280;26823;42.662;23.352;2023-05-31T13:02:01;94811.59;;;17.99;100.00
41078;BME280;26823;42.662;23.352;2023-05-31T13:04:28;94816.56;;;17.97;100.00
41078;BME280;26823;42.662;23.352;2023-05-31T13:06:54;94802.72;;;18.02;100.00
41078;BME280;26823;42.662;23.352;2023-05-31T13:09:19;94831.38;;;17.96;100.00